createdAt,value
2022-11-06T00:01:32.673Z,150132.81
2022-11-06T00:03:58.536Z,150103.81
2022-11-06T00:06:43.714Z,150103.81
2022-11-06T00:09:12.044Z,150111.41
2022-11-06T00:11:39.607Z,150086.16
2022-11-06T00:14:05.947Z,150095.00
2022-11-06T00:16:32.076Z,150101.28
2022-11-06T00:19:01.675Z,150101.28
2022-11-06T00:21:29.580Z,150126.47
2022-11-06T00:23:57.490Z,150116.41
2022-11-06T00:26:25.694Z,150095.00
2022-11-06T00:28:52.593Z,150082.38
2022-11-06T00:31:21.529Z,150091.19
2022-11-06T00:33:48.091Z,150106.31
2022-11-06T00:36:18.613Z,150089.91
2022-11-06T00:38:44.644Z,150076.09
2022-11-06T00:41:12.566Z,150088.66
2022-11-06T00:43:38.575Z,150081.13
2022-11-06T00:46:07.277Z,150067.25
2022-11-06T00:48:34.236Z,150052.09
2022-11-06T00:51:03.556Z,150081.13
2022-11-06T00:53:29.556Z,150068.50
2022-11-06T00:56:02.568Z,150069.75
2022-11-06T00:58:28.553Z,150077.34
2022-11-06T01:00:54.356Z,150076.09
2022-11-06T01:03:20.122Z,150081.13
2022-11-06T01:05:45.933Z,150098.78
2022-11-06T01:08:12.076Z,150107.56
2022-11-06T01:10:38.078Z,150102.53
2022-11-06T01:13:03.911Z,150097.50
2022-11-06T01:15:29.628Z,150087.41
2022-11-06T01:17:55.578Z,150110.09
2022-11-06T01:20:21.476Z,150115.16
2022-11-06T01:22:47.277Z,150081.13
2022-11-06T01:25:13.047Z,150095.00
2022-11-06T01:27:38.912Z,150079.88
2022-11-06T01:30:05.359Z,150081.13
2022-11-06T01:32:31.166Z,150092.44
2022-11-06T01:34:56.957Z,150078.59
2022-11-06T01:37:22.789Z,150078.59
2022-11-06T01:39:49.999Z,150073.53
2022-11-06T01:42:20.182Z,150067.25
2022-11-06T01:45:15.415Z,150079.88
2022-11-06T01:47:42.008Z,150078.59
2022-11-06T01:50:09.511Z,150103.81
2022-11-06T01:52:35.866Z,150092.44
2022-11-06T01:55:21.376Z,150107.56
2022-11-06T01:57:47.891Z,150093.75
2022-11-06T02:00:14.182Z,150081.13
2022-11-06T02:02:40.957Z,150086.16
2022-11-06T02:05:07.286Z,150084.91
2022-11-06T02:07:33.474Z,150077.34
2022-11-06T02:09:59.228Z,150040.78
2022-11-06T02:12:46.301Z,150053.38
2022-11-06T02:15:41.145Z,150040.78
2022-11-06T02:18:36.407Z,150049.59
2022-11-06T02:21:17.391Z,150055.88
2022-11-06T02:24:13.467Z,150038.22
2022-11-06T02:26:55.932Z,150038.22
2022-11-06T02:29:37.592Z,150025.66
2022-11-06T02:32:11.459Z,150034.47
2022-11-06T02:34:39.221Z,150026.91
2022-11-06T02:37:12.448Z,150030.69
2022-11-06T02:39:41.352Z,150019.31
2022-11-06T02:42:10.176Z,150026.91
2022-11-06T02:44:38.579Z,150020.59
2022-11-06T02:47:09.047Z,150034.47
2022-11-06T02:49:44.337Z,150034.47
2022-11-06T02:52:22.819Z,150020.59
2022-11-06T02:54:55.857Z,150025.66
2022-11-06T02:57:24.600Z,150020.59
2022-11-06T02:59:56.552Z,150018.06
2022-11-06T03:02:32.887Z,150025.66
2022-11-06T03:05:08.174Z,150010.53
2022-11-06T03:07:43.342Z,150009.28
2022-11-06T03:10:10.691Z,150021.88
2022-11-06T03:12:45.566Z,150039.50
2022-11-06T03:15:35.891Z,150038.22
2022-11-06T03:18:14.096Z,150055.88
2022-11-06T03:21:06.891Z,150059.69
2022-11-06T03:23:43.992Z,150073.53
2022-11-06T03:26:19.048Z,150063.47
2022-11-06T03:28:54.843Z,150063.47
2022-11-06T03:31:31.705Z,150077.34
2022-11-06T03:34:12.889Z,150089.91
2022-11-06T03:36:52.270Z,150049.59
2022-11-06T03:39:26.901Z,150065.97
2022-11-06T03:42:04.971Z,150053.38
2022-11-06T03:44:34.390Z,150043.31
2022-11-06T03:47:26.145Z,150045.81
2022-11-06T03:50:31.272Z,150033.19
2022-11-06T03:53:20.635Z,150042.06
2022-11-06T03:55:52.914Z,150025.66
2022-11-06T03:58:22.997Z,150031.94
2022-11-06T04:00:51.290Z,150039.50
2022-11-06T04:03:30.484Z,150036.97
2022-11-06T04:06:05.232Z,150009.28
2022-11-06T04:08:50.867Z,150042.06
2022-11-06T04:11:40.794Z,150033.19
2022-11-06T04:14:08.449Z,150042.06
2022-11-06T04:16:39.258Z,150016.81
2022-11-06T04:19:20.234Z,150026.91
2022-11-06T04:22:22.950Z,150015.56
2022-11-06T04:25:07.137Z,150004.25
2022-11-06T04:27:51.086Z,149995.41
2022-11-06T04:30:18.030Z,150018.06
2022-11-06T04:32:43.774Z,150008.00
2022-11-06T04:35:14.511Z,150004.25
2022-11-06T04:38:15.632Z,150013.03
2022-11-06T04:41:11.427Z,150031.94
2022-11-06T04:43:51.462Z,150021.88
2022-11-06T04:46:23.311Z,150038.22
2022-11-06T04:48:50.217Z,150040.78
2022-11-06T04:51:22.541Z,150035.72
2022-11-06T04:53:50.605Z,150043.31
2022-11-06T04:56:25.579Z,150011.78
2022-11-06T04:58:51.616Z,150021.88
2022-11-06T05:01:17.388Z,150019.31
2022-11-06T05:03:43.180Z,149999.16
2022-11-06T05:06:09.078Z,150010.53
2022-11-06T05:08:34.832Z,149995.41
2022-11-06T05:11:00.582Z,149994.13
2022-11-06T05:13:26.376Z,150006.75
2022-11-06T05:15:56.796Z,150005.50
2022-11-06T05:18:23.942Z,149995.41
2022-11-06T05:21:09.960Z,149994.13
2022-11-06T05:23:37.587Z,149996.66
2022-11-06T05:26:04.899Z,149981.53
2022-11-06T05:28:30.831Z,149992.88
2022-11-06T05:30:56.712Z,149996.66
2022-11-06T05:33:23.110Z,149999.16
2022-11-06T05:35:49.547Z,150000.41
2022-11-06T05:38:15.911Z,149961.38
2022-11-06T05:40:42.085Z,149979.00
2022-11-06T05:43:08.022Z,150000.41
2022-11-06T05:45:33.849Z,149984.03
2022-11-06T05:47:59.970Z,150005.50
2022-11-06T05:50:26.223Z,149975.22
2022-11-06T05:52:52.030Z,149973.97
2022-11-06T05:55:18.986Z,149984.03
2022-11-06T05:57:44.802Z,149990.38
2022-11-06T06:00:11.489Z,149973.97
2022-11-06T06:02:37.713Z,149987.84
2022-11-06T06:05:04.946Z,149977.75
2022-11-06T06:07:31.296Z,149994.13
2022-11-06T06:09:57.067Z,150000.41
2022-11-06T06:12:25.579Z,150005.50
2022-11-06T06:14:54.050Z,150006.75
2022-11-06T06:17:20.212Z,149990.38
2022-11-06T06:19:46.753Z,149968.94
2022-11-06T06:22:12.635Z,149986.59
2022-11-06T06:24:38.515Z,149994.13
2022-11-06T06:27:04.778Z,149980.25
2022-11-06T06:29:30.585Z,149992.88
2022-11-06T06:31:56.373Z,149996.66
2022-11-06T06:34:22.187Z,149977.75
2022-11-06T06:36:52.471Z,149980.25
2022-11-06T06:39:19.307Z,149992.88
2022-11-06T06:41:46.109Z,149973.97
2022-11-06T06:44:12.397Z,149987.84
2022-11-06T06:46:38.230Z,149986.59
2022-11-06T06:49:04.585Z,150011.78
2022-11-06T06:51:30.802Z,150025.66
2022-11-06T06:53:56.932Z,150039.50
2022-11-06T06:56:22.723Z,150034.47
2022-11-06T06:58:48.970Z,150038.22
2022-11-06T07:01:14.851Z,150044.56
2022-11-06T07:03:40.617Z,150060.94
2022-11-06T07:06:06.947Z,150059.69
2022-11-06T07:08:33.535Z,150071.00
2022-11-06T07:11:05.236Z,150086.16
2022-11-06T07:13:35.484Z,150074.78
2022-11-06T07:16:07.032Z,150084.91
2022-11-06T07:18:33.713Z,150103.81
2022-11-06T07:20:59.493Z,150112.66
2022-11-06T07:23:25.227Z,150103.81
2022-11-06T07:25:53.404Z,150107.56
2022-11-06T07:28:19.737Z,150100.03
2022-11-06T07:30:45.847Z,150112.66
2022-11-06T07:33:11.853Z,150135.34
2022-11-06T07:35:37.809Z,150134.06
2022-11-06T07:38:06.069Z,150155.50
2022-11-06T07:40:32.753Z,150171.91
2022-11-06T07:43:06.867Z,150195.84
2022-11-06T07:45:33.448Z,150213.50
2022-11-06T07:47:59.603Z,150190.81
2022-11-06T07:50:25.805Z,150178.19
2022-11-06T07:52:52.032Z,150187.03
2022-11-06T07:55:17.972Z,150211.00
2022-11-06T07:57:43.767Z,150217.28
2022-11-06T08:00:10.485Z,150214.75
2022-11-06T08:02:36.235Z,150245.06
2022-11-06T08:05:02.186Z,150238.75
2022-11-06T08:07:28.045Z,150241.28
2022-11-06T08:09:53.810Z,150267.75
2022-11-06T08:12:19.572Z,150303.13
2022-11-06T08:14:45.345Z,150284.19
2022-11-06T08:17:11.180Z,150314.50
2022-11-06T08:19:37.051Z,150310.72
2022-11-06T08:22:02.934Z,150309.47
2022-11-06T08:24:28.709Z,150314.50
2022-11-06T08:26:54.499Z,150315.75
2022-11-06T08:29:20.273Z,150357.38
2022-11-06T08:31:46.064Z,150351.06
2022-11-06T08:34:11.858Z,150387.66
2022-11-06T08:36:46.783Z,150378.81
2022-11-06T08:39:15.180Z,150404.06
2022-11-06T08:41:41.203Z,150383.91
2022-11-06T08:44:07.193Z,150381.38
2022-11-06T08:46:33.046Z,150420.50
2022-11-06T08:48:58.814Z,150407.84
2022-11-06T08:51:24.591Z,150385.16
2022-11-06T08:53:50.443Z,150388.94
2022-11-06T08:56:16.674Z,150449.50
2022-11-06T08:58:42.645Z,150435.63
2022-11-06T09:01:09.059Z,150462.13
2022-11-06T09:03:34.916Z,150450.75
2022-11-06T09:06:00.748Z,150477.28
2022-11-06T09:08:26.697Z,150502.50
2022-11-06T09:10:58.111Z,150473.50
2022-11-06T09:13:24.550Z,150531.56
2022-11-06T09:15:50.307Z,150640.16
2022-11-06T09:18:16.207Z,150699.50
2022-11-06T09:20:42.034Z,150752.56
2022-11-06T09:23:09.719Z,150760.16
2022-11-06T09:25:35.546Z,150825.84
2022-11-06T09:28:01.351Z,150856.19
2022-11-06T09:30:29.795Z,150986.41
2022-11-06T09:32:58.641Z,151193.84
2022-11-06T09:35:26.967Z,151340.59
2022-11-06T09:37:52.755Z,151946.19
2022-11-06T09:40:20.804Z,152399.13
2022-11-06T09:43:50.056Z,153390.72
2022-11-06T09:46:25.414Z,153512.97
2022-11-06T09:49:11.796Z,153799.59
2022-11-06T09:51:59.817Z,154390.09
2022-11-06T09:54:31.772Z,154122.19
2022-11-06T09:57:04.072Z,153623.75
2022-11-06T09:59:35.282Z,153059.91
2022-11-06T10:02:01.783Z,152889.53
2022-11-06T10:04:40.111Z,153019.22
2022-11-06T10:07:27.360Z,152846.28
2022-11-06T10:09:53.508Z,152899.66
2022-11-06T10:12:31.565Z,152387.69
2022-11-06T10:15:03.639Z,151939.81
2022-11-06T10:18:06.595Z,151706.56
2022-11-06T10:20:44.218Z,151610.31
2022-11-06T10:23:38.354Z,151979.13
2022-11-06T10:26:32.680Z,151861.25
2022-11-06T10:29:05.409Z,151448.25
2022-11-06T10:32:12.673Z,151284.91
2022-11-06T10:34:49.000Z,151376.09
2022-11-06T10:37:25.509Z,151421.63
2022-11-06T10:39:53.605Z,151702.78
2022-11-06T10:42:22.951Z,151891.69
2022-11-06T10:45:02.655Z,152552.78
2022-11-06T10:47:33.007Z,152588.34
2022-11-06T10:50:02.851Z,152543.91
2022-11-06T10:52:28.651Z,152818.34
2022-11-06T10:55:10.548Z,152444.84
2022-11-06T10:58:00.351Z,152410.56
2022-11-06T11:00:26.478Z,153010.31
2022-11-06T11:02:57.009Z,153422.53
2022-11-06T11:05:25.288Z,153648.00
2022-11-06T11:07:51.182Z,153515.53
2022-11-06T11:10:22.744Z,152655.66
2022-11-06T11:12:53.849Z,152268.34
2022-11-06T11:15:21.624Z,152154.19
2022-11-06T11:18:08.323Z,152048.84
2022-11-06T11:20:36.167Z,151815.59
2022-11-06T11:23:20.021Z,151785.22
2022-11-06T11:25:48.845Z,151664.78
2022-11-06T11:28:32.659Z,151588.78
2022-11-06T11:31:12.300Z,151303.91
2022-11-06T11:33:50.345Z,151182.44
2022-11-06T11:36:16.582Z,151167.25
2022-11-06T11:38:42.784Z,151106.53
2022-11-06T11:41:11.835Z,151081.28
2022-11-06T11:43:37.814Z,150999.06
2022-11-06T11:46:07.997Z,150988.94
2022-11-06T11:48:55.305Z,150956.09
2022-11-06T11:51:53.934Z,150987.66
2022-11-06T11:54:26.078Z,151049.66
2022-11-06T11:57:09.042Z,151079.97
2022-11-06T11:59:55.583Z,151014.25
2022-11-06T12:02:33.865Z,150987.66
2022-11-06T12:05:08.662Z,151049.66
2022-11-06T12:07:46.957Z,151023.06
2022-11-06T12:10:31.979Z,150976.31
2022-11-06T12:13:00.686Z,150986.41
2022-11-06T12:15:32.703Z,151073.66
2022-11-06T12:18:21.089Z,151102.75
2022-11-06T12:21:11.513Z,151192.56
2022-11-06T12:23:46.773Z,151181.16
2022-11-06T12:26:42.641Z,151135.66
2022-11-06T12:29:17.830Z,151019.28
2022-11-06T12:32:02.125Z,151049.66
2022-11-06T12:34:38.210Z,151069.88
2022-11-06T12:37:16.048Z,151057.22
2022-11-06T12:39:49.265Z,151120.47
2022-11-06T12:42:18.553Z,151171.03
2022-11-06T12:44:46.562Z,151092.63
2022-11-06T12:47:29.273Z,151100.25
2022-11-06T12:50:31.227Z,151150.78
2022-11-06T12:53:28.115Z,151136.91
2022-11-06T12:56:01.992Z,151240.59
2022-11-06T12:58:56.968Z,151284.91
2022-11-06T13:01:33.469Z,151484.94
2022-11-06T13:04:41.171Z,151540.66
2022-11-06T13:07:44.254Z,151415.31
2022-11-06T13:10:32.717Z,151296.28
2022-11-06T13:12:58.451Z,151143.22
2022-11-06T13:15:30.857Z,151085.06
2022-11-06T13:18:12.053Z,151100.25
2022-11-06T13:20:53.408Z,151092.63
2022-11-06T13:23:27.373Z,151086.31
2022-11-06T13:26:02.332Z,151076.19
2022-11-06T13:28:59.662Z,151053.44
2022-11-06T13:31:35.995Z,151052.19
2022-11-06T13:34:04.538Z,151074.91
2022-11-06T13:36:31.198Z,151039.50
2022-11-06T13:39:09.476Z,151031.94
2022-11-06T13:41:35.479Z,151048.38
2022-11-06T13:44:06.684Z,151092.63
2022-11-06T13:46:53.954Z,151171.03
2022-11-06T13:49:27.594Z,151202.66
2022-11-06T13:51:57.271Z,151191.31
2022-11-06T13:54:31.689Z,151169.75
2022-11-06T13:57:32.019Z,151158.41
2022-11-06T14:00:13.778Z,151160.94
2022-11-06T14:03:13.459Z,151165.97
2022-11-06T14:05:47.474Z,151144.47
2022-11-06T14:08:25.793Z,151111.59
2022-11-06T14:10:57.406Z,151078.69
2022-11-06T14:13:26.235Z,151087.59
2022-11-06T14:16:14.363Z,151042.03
2022-11-06T14:18:41.239Z,150990.19
2022-11-06T14:21:25.072Z,151044.56
2022-11-06T14:24:16.814Z,151050.91
2022-11-06T14:26:48.112Z,151082.53
2022-11-06T14:29:25.994Z,151059.75
2022-11-06T14:32:25.484Z,151038.25
2022-11-06T14:34:51.299Z,151015.50
2022-11-06T14:37:17.133Z,151031.94
2022-11-06T14:39:54.990Z,151010.47
2022-11-06T14:42:26.948Z,151015.50
2022-11-06T14:45:09.517Z,150999.06
2022-11-06T14:47:49.045Z,150962.41
2022-11-06T14:50:17.872Z,150943.44
2022-11-06T14:52:50.152Z,150895.41
2022-11-06T14:55:55.126Z,150908.06
2022-11-06T14:58:22.386Z,150881.44
2022-11-06T15:01:10.460Z,150857.44
2022-11-06T15:03:56.239Z,150871.34
2022-11-06T15:06:28.012Z,150859.97
2022-11-06T15:09:00.078Z,150878.91
2022-11-06T15:11:31.961Z,150852.41
2022-11-06T15:14:06.343Z,150835.97
2022-11-06T15:17:12.036Z,150868.84
2022-11-06T15:19:45.953Z,150842.28
2022-11-06T15:22:43.985Z,150808.16
2022-11-06T15:25:15.876Z,150843.53
2022-11-06T15:27:47.122Z,150809.41
2022-11-06T15:30:16.968Z,150796.81
2022-11-06T15:32:45.418Z,150766.47
2022-11-06T15:35:11.671Z,150761.44
2022-11-06T15:37:46.910Z,150762.69
2022-11-06T15:40:34.041Z,150746.25
2022-11-06T15:43:05.335Z,150727.31
2022-11-06T15:45:32.151Z,150729.81
2022-11-06T15:48:07.087Z,150737.38
2022-11-06T15:50:35.996Z,150739.97
2022-11-06T15:53:18.005Z,150726.06
2022-11-06T15:55:49.233Z,150739.97
2022-11-06T15:58:17.990Z,150720.97
2022-11-06T16:00:45.026Z,150718.44
2022-11-06T16:03:17.560Z,150723.53
2022-11-06T16:05:45.007Z,150704.59
2022-11-06T16:08:14.121Z,150700.75
2022-11-06T16:10:41.678Z,150680.56
2022-11-06T16:13:12.136Z,150694.47
2022-11-06T16:15:53.003Z,150638.91
2022-11-06T16:18:27.818Z,150659.09
2022-11-06T16:21:18.555Z,150630.03
2022-11-06T16:23:52.512Z,150607.31
2022-11-06T16:26:34.969Z,150614.91
2022-11-06T16:29:02.946Z,150628.75
2022-11-06T16:31:30.501Z,150619.94
2022-11-06T16:34:02.714Z,150595.97
2022-11-06T16:36:31.481Z,150602.28
2022-11-06T16:39:49.877Z,150583.34
2022-11-06T16:42:36.022Z,150569.44
2022-11-06T16:45:17.337Z,150536.59
2022-11-06T16:48:06.537Z,150515.16
2022-11-06T16:50:44.746Z,150541.63
2022-11-06T16:53:11.988Z,150494.94
2022-11-06T16:55:38.654Z,150465.91
2022-11-06T16:58:05.452Z,150416.72
2022-11-06T17:00:32.519Z,150407.84
2022-11-06T17:03:06.333Z,150377.56
2022-11-06T17:05:37.897Z,150376.28
2022-11-06T17:08:25.562Z,150375.03
2022-11-06T17:11:11.683Z,150377.56
2022-11-06T17:13:44.976Z,150347.31
2022-11-06T17:16:15.013Z,150357.38
2022-11-06T17:18:40.941Z,150356.09
2022-11-06T17:21:13.186Z,150340.97
2022-11-06T17:23:39.709Z,150353.59
2022-11-06T17:26:13.658Z,150358.63
2022-11-06T17:28:39.735Z,150339.69
2022-11-06T17:31:09.559Z,150298.09
2022-11-06T17:33:37.189Z,150309.47
2022-11-06T17:36:03.504Z,150330.91
2022-11-06T17:38:29.683Z,150328.38
2022-11-06T17:40:55.557Z,150323.28
2022-11-06T17:43:21.504Z,150343.47
2022-11-06T17:45:49.170Z,150325.81
2022-11-06T17:48:16.205Z,150330.91
2022-11-06T17:51:01.082Z,150339.69
2022-11-06T17:53:26.979Z,150318.25
2022-11-06T17:55:52.817Z,150363.72
2022-11-06T17:58:18.905Z,150334.66
2022-11-06T18:00:45.192Z,150338.44
2022-11-06T18:03:19.795Z,150338.44
2022-11-06T18:05:46.776Z,150333.41
2022-11-06T18:08:13.926Z,150318.25
2022-11-06T18:10:40.219Z,150356.09
2022-11-06T18:13:06.439Z,150346.03
2022-11-06T18:15:34.090Z,150371.25
2022-11-06T18:18:00.133Z,150362.41
2022-11-06T18:20:26.083Z,150357.38
2022-11-06T18:22:51.956Z,150364.97
2022-11-06T18:25:17.925Z,150357.38
2022-11-06T18:27:43.864Z,150317.00
2022-11-06T18:30:10.512Z,150327.13
2022-11-06T18:32:36.581Z,150353.59
2022-11-06T18:35:02.492Z,150367.50
2022-11-06T18:37:29.072Z,150375.03
2022-11-06T18:39:55.047Z,150378.81
2022-11-06T18:42:21.014Z,150371.25
2022-11-06T18:44:46.910Z,150364.97
2022-11-06T18:47:12.807Z,150378.81
2022-11-06T18:49:38.743Z,150371.25
2022-11-06T18:52:04.672Z,150368.75
2022-11-06T18:54:30.775Z,150392.69
2022-11-06T18:56:56.753Z,150381.38
2022-11-06T18:59:23.807Z,150386.41
2022-11-06T19:01:49.929Z,150376.28
2022-11-06T19:04:16.277Z,150393.97
2022-11-06T19:06:42.400Z,150397.72
2022-11-06T19:09:09.806Z,150420.50
2022-11-06T19:11:35.978Z,150410.38
2022-11-06T19:14:02.021Z,150388.94
2022-11-06T19:16:28.189Z,150415.41
2022-11-06T19:21:31.186Z,150446.97
2022-11-06T19:24:05.289Z,150428.03
2022-11-06T19:26:33.700Z,150417.97
2022-11-06T19:29:00.368Z,150405.34
2022-11-06T19:31:29.945Z,150414.16
2022-11-06T19:33:58.573Z,150406.59
2022-11-06T19:36:25.053Z,150396.47
2022-11-06T19:38:51.289Z,150377.56
2022-11-06T19:41:17.466Z,150364.97
2022-11-06T19:43:43.498Z,150353.59
2022-11-06T19:46:09.613Z,150356.09
2022-11-06T19:48:35.701Z,150381.38
2022-11-06T19:51:01.903Z,150395.22
2022-11-06T19:53:28.268Z,150410.38
2022-11-06T19:55:55.545Z,150402.81
2022-11-06T19:58:21.740Z,150386.41
2022-11-06T20:00:50.816Z,150396.47
2022-11-06T20:03:17.340Z,150390.19
2022-11-06T20:05:43.649Z,150407.84
2022-11-06T20:08:10.057Z,150425.53
2022-11-06T20:10:36.780Z,150414.16
2022-11-06T20:13:04.268Z,150421.75
2022-11-06T20:15:31.114Z,150443.19
2022-11-06T20:17:57.458Z,150421.75
2022-11-06T20:20:25.324Z,150430.56
2022-11-06T20:22:51.720Z,150426.78
2022-11-06T20:25:18.110Z,150416.72
2022-11-06T20:27:44.478Z,150409.13
2022-11-06T20:30:11.294Z,150424.25
2022-11-06T20:32:37.351Z,150428.03
2022-11-06T20:35:05.096Z,150412.88
2022-11-06T20:37:31.400Z,150421.75
2022-11-06T20:39:57.383Z,150429.31
2022-11-06T20:42:23.548Z,150409.13
2022-11-06T20:44:49.720Z,150424.25
2022-11-06T20:47:16.133Z,150430.56
2022-11-06T20:49:42.629Z,150459.59
2022-11-06T20:52:14.066Z,150464.63
2022-11-06T20:54:46.410Z,150457.09
2022-11-06T20:57:14.587Z,150476.03
2022-11-06T20:59:40.634Z,150478.53
2022-11-06T21:02:06.925Z,150462.13
2022-11-06T21:04:33.205Z,150470.97
2022-11-06T21:06:59.145Z,150453.31
2022-11-06T21:09:25.151Z,150454.56
2022-11-06T21:11:51.061Z,150465.91
2022-11-06T21:14:17.042Z,150449.50
2022-11-06T21:16:43.089Z,150470.97
2022-11-06T21:19:08.989Z,150462.13
2022-11-06T21:21:36.634Z,150467.16
2022-11-06T21:24:03.995Z,150467.16
2022-11-06T21:26:32.363Z,150460.88
2022-11-06T21:28:58.497Z,150458.34
2022-11-06T21:31:26.688Z,150474.75
2022-11-06T21:33:54.662Z,150470.97
2022-11-06T21:36:24.442Z,150474.75
2022-11-06T21:38:50.917Z,150462.13
2022-11-06T21:41:25.170Z,150464.63
2022-11-06T21:43:51.272Z,150486.09
2022-11-06T21:46:18.157Z,150496.22
2022-11-06T21:48:46.961Z,150496.22
2022-11-06T21:51:21.744Z,150498.72
2022-11-06T21:54:06.868Z,150484.84
2022-11-06T21:56:33.969Z,150503.75
2022-11-06T21:59:01.293Z,150508.84
2022-11-06T22:01:27.962Z,150508.84
2022-11-06T22:03:54.540Z,150510.09
2022-11-06T22:06:24.750Z,150527.78
2022-11-06T22:08:52.208Z,150494.94
2022-11-06T22:11:23.871Z,150503.75
2022-11-06T22:13:51.175Z,150506.34
2022-11-06T22:16:20.421Z,150508.84
2022-11-06T22:18:46.448Z,150503.75
2022-11-06T22:21:26.755Z,150507.59
2022-11-06T22:23:52.948Z,150523.97
2022-11-06T22:26:24.655Z,150521.44
2022-11-06T22:28:55.350Z,150527.78
2022-11-06T22:31:21.903Z,150501.25
2022-11-06T22:33:52.360Z,150503.75
2022-11-06T22:36:20.213Z,150512.63
2022-11-06T22:38:46.502Z,150502.50
2022-11-06T22:41:17.251Z,150498.72
2022-11-06T22:43:43.967Z,150484.84
2022-11-06T22:46:16.007Z,150493.69
2022-11-06T22:48:42.173Z,150478.53
2022-11-06T22:51:10.926Z,150540.38
2022-11-06T22:53:37.687Z,150555.53
2022-11-06T22:56:03.842Z,150522.69
2022-11-06T22:58:29.921Z,150518.91
2022-11-06T23:00:56.888Z,150549.25
2022-11-06T23:03:25.227Z,150537.84
2022-11-06T23:05:51.071Z,150540.38
2022-11-06T23:08:18.300Z,150546.72
2022-11-06T23:10:44.273Z,150535.34
2022-11-06T23:13:10.734Z,150551.75
2022-11-06T23:15:37.456Z,150554.28
2022-11-06T23:18:04.456Z,150547.97
2022-11-06T23:20:34.539Z,150577.00
2022-11-06T23:23:01.833Z,150558.06
2022-11-06T23:25:28.497Z,150560.63
2022-11-06T23:27:54.777Z,150571.94
2022-11-06T23:30:20.927Z,150585.84
2022-11-06T23:32:46.922Z,150585.84
2022-11-06T23:35:15.280Z,150589.63
2022-11-06T23:37:42.788Z,150583.34
2022-11-06T23:40:09.962Z,150592.16
2022-11-06T23:42:36.116Z,150597.22
2022-11-06T23:45:20.969Z,150617.44
2022-11-06T23:47:50.061Z,150627.50
2022-11-06T23:50:17.029Z,150622.47
2022-11-06T23:52:43.339Z,150621.22
2022-11-06T23:55:09.265Z,150662.88
2022-11-06T23:57:35.027Z,150665.38
